createdAt,value
2018-06-04T00:00:40.829Z,83.89
2018-06-04T00:01:40.825Z,84.51
2018-06-04T00:02:40.826Z,84.60
2018-06-04T00:03:40.810Z,84.27
2018-06-04T00:04:40.799Z,84.22
2018-06-04T00:05:40.796Z,84.18
2018-06-04T00:06:40.785Z,84.56
2018-06-04T00:07:40.813Z,84.75
2018-06-04T00:08:40.792Z,84.75
2018-06-04T00:09:40.751Z,84.27
2018-06-04T00:10:40.747Z,84.75
2018-06-04T00:11:40.740Z,84.75
2018-06-04T00:12:40.772Z,84.75
2018-06-04T00:13:40.735Z,84.56
2018-06-04T00:14:40.855Z,84.56
2018-06-04T00:15:40.726Z,85.24
2018-06-04T00:16:40.717Z,85.14
2018-06-04T00:17:40.691Z,84.75
2018-06-04T00:18:40.695Z,84.75
2018-06-04T00:19:40.693Z,85.04
2018-06-04T00:20:40.692Z,85.14
2018-06-04T00:21:40.678Z,85.14
2018-06-04T00:22:40.688Z,85.04
2018-06-04T00:23:40.657Z,84.85
2018-06-04T00:24:40.643Z,85.04
2018-06-04T00:25:40.664Z,85.24
2018-06-04T00:26:40.631Z,85.10
2018-06-04T00:27:40.621Z,85.33
2018-06-04T00:28:40.620Z,85.38
2018-06-04T00:29:40.624Z,85.33
2018-06-04T00:30:40.588Z,85.38
2018-06-04T00:31:40.595Z,85.91
2018-06-04T00:32:40.577Z,86.00
2018-06-04T00:33:40.579Z,86.05
2018-06-04T00:34:40.566Z,86.15
2018-06-04T00:35:40.557Z,86.00
2018-06-04T00:36:40.543Z,86.44
2018-06-04T00:37:40.546Z,86.38
2018-06-04T00:38:40.528Z,86.15
2018-06-04T00:39:40.950Z,85.86
2018-06-04T00:40:40.512Z,85.67
2018-06-04T00:41:40.502Z,85.86
2018-06-04T00:42:40.493Z,86.05
2018-06-04T00:43:40.497Z,85.86
2018-06-04T00:44:40.472Z,85.77
2018-06-04T00:45:40.510Z,86.25
2018-06-04T00:46:40.489Z,85.67
2018-06-04T00:47:40.470Z,85.86
2018-06-04T00:48:40.447Z,85.96
2018-06-04T00:49:40.457Z,85.67
2018-06-04T00:50:40.457Z,86.15
2018-06-04T00:51:40.415Z,86.10
2018-06-04T00:52:40.456Z,85.62
2018-06-04T00:53:40.419Z,86.10
2018-06-04T00:54:40.407Z,86.00
2018-06-04T00:55:40.465Z,86.19
2018-06-04T00:56:40.417Z,86.19
2018-06-04T00:57:40.374Z,86.10
2018-06-04T00:58:40.371Z,86.10
2018-06-04T00:59:40.373Z,86.00
2018-06-04T01:00:40.351Z,86.10
2018-06-04T01:01:40.392Z,85.91
2018-06-04T01:02:40.347Z,85.14
2018-06-04T01:03:40.340Z,85.14
2018-06-04T01:04:40.331Z,84.85
2018-06-04T01:05:40.318Z,84.42
2018-06-04T01:06:40.339Z,84.27
2018-06-04T01:07:40.299Z,84.66
2018-06-04T01:08:40.351Z,84.71
2018-06-04T01:09:40.290Z,85.00
2018-06-04T01:10:40.274Z,85.00
2018-06-04T01:11:40.267Z,84.71
2018-06-04T01:12:40.267Z,83.94
2018-06-04T01:13:40.246Z,84.14
2018-06-04T01:14:40.250Z,83.94
2018-06-04T01:15:40.233Z,84.61
2018-06-04T01:16:40.225Z,85.19
2018-06-04T01:17:40.220Z,84.81
2018-06-04T01:18:40.212Z,84.95
2018-06-04T01:19:40.247Z,85.15
2018-06-04T01:20:40.179Z,85.53
2018-06-04T01:21:40.187Z,84.86
2018-06-04T01:22:40.186Z,85.05
2018-06-04T01:23:40.173Z,85.92
2018-06-04T01:24:40.168Z,85.63
2018-06-04T01:25:40.151Z,86.05
2018-06-04T01:26:40.167Z,85.77
2018-06-04T01:27:40.136Z,85.72
2018-06-04T01:28:40.138Z,85.58
2018-06-04T01:29:40.136Z,85.96
2018-06-04T01:30:40.108Z,85.86
2018-06-04T01:31:40.118Z,85.86
2018-06-04T01:32:40.090Z,85.86
2018-06-04T01:33:40.093Z,86.34
2018-06-04T01:34:40.078Z,86.05
2018-06-04T01:35:40.104Z,86.11
2018-06-04T01:36:40.058Z,85.82
2018-06-04T01:37:40.052Z,86.01
2018-06-04T01:38:40.052Z,86.25
2018-06-04T01:39:40.059Z,86.30
2018-06-04T01:40:40.031Z,86.63
2018-06-04T01:41:40.047Z,86.63
2018-06-04T01:42:40.010Z,86.25
2018-06-04T01:43:40.008Z,86.63
2018-06-04T01:44:39.988Z,86.49
2018-06-04T01:45:40.137Z,86.21
2018-06-04T01:46:39.977Z,86.97
2018-06-04T01:47:39.981Z,86.88
2018-06-04T01:48:39.968Z,86.88
2018-06-04T01:49:39.953Z,86.78
2018-06-04T01:50:39.959Z,86.88
2018-06-04T01:51:39.949Z,87.35
2018-06-04T01:52:39.930Z,86.97
2018-06-04T01:53:39.929Z,86.97
2018-06-04T01:54:39.926Z,86.88
2018-06-04T01:55:39.913Z,87.35
2018-06-04T01:56:39.947Z,87.35
2018-06-04T01:57:39.890Z,87.26
2018-06-04T01:58:39.887Z,87.74
2018-06-04T01:59:39.868Z,87.84
2018-06-04T02:00:39.847Z,87.64
2018-06-04T02:01:39.857Z,87.84
2018-06-04T02:02:39.850Z,88.02
2018-06-04T02:03:39.828Z,87.26
2018-06-04T02:04:39.829Z,88.02
2018-06-04T02:05:39.826Z,87.84
2018-06-04T02:06:39.839Z,87.55
2018-06-04T02:07:40.062Z,87.55
2018-06-04T02:08:39.803Z,87.84
2018-06-04T02:09:39.787Z,87.74
2018-06-04T02:10:39.774Z,87.93
2018-06-04T02:11:39.772Z,87.26
2018-06-04T02:12:39.762Z,87.40
2018-06-04T02:13:39.800Z,87.01
2018-06-04T02:14:39.737Z,86.68
2018-06-04T02:15:39.741Z,86.88
2018-06-04T02:16:39.725Z,86.97
2018-06-04T02:17:39.718Z,87.21
2018-06-04T02:18:39.729Z,86.88
2018-06-04T02:19:39.714Z,86.88
2018-06-04T02:20:39.693Z,86.88
2018-06-04T02:21:39.684Z,86.78
2018-06-04T02:22:39.664Z,87.01
2018-06-04T02:23:39.699Z,87.07
2018-06-04T02:24:39.695Z,86.97
2018-06-04T02:25:39.641Z,87.45
2018-06-04T02:26:39.636Z,86.88
2018-06-04T02:27:39.637Z,86.58
2018-06-04T02:28:39.636Z,86.83
2018-06-04T02:29:39.654Z,86.83
2018-06-04T02:30:39.602Z,87.12
2018-06-04T02:31:39.601Z,87.60
2018-06-04T02:32:39.583Z,88.08
2018-06-04T02:33:39.594Z,87.98
2018-06-04T02:34:39.953Z,88.56
2018-06-04T02:35:39.584Z,88.37
2018-06-04T02:36:39.542Z,88.17
2018-06-04T02:37:39.560Z,88.84
2018-06-04T02:38:39.540Z,89.04
2018-06-04T02:39:39.516Z,88.46
2018-06-04T02:40:39.560Z,88.37
2018-06-04T02:41:39.550Z,88.37
2018-06-04T02:42:39.507Z,87.98
2018-06-04T02:43:39.482Z,88.56
2018-06-04T02:44:39.479Z,88.27
2018-06-04T02:45:39.924Z,88.75
2018-06-04T02:46:39.469Z,88.65
2018-06-04T02:47:39.462Z,88.12
2018-06-04T02:48:39.440Z,88.17
2018-06-04T02:49:39.441Z,87.74
2018-06-04T02:50:39.443Z,88.17
2018-06-04T02:51:39.457Z,87.98
2018-06-04T02:52:39.416Z,87.88
2018-06-04T02:53:39.406Z,88.08
2018-06-04T02:54:39.418Z,87.93
2018-06-04T02:55:39.384Z,87.93
2018-06-04T02:56:39.415Z,87.64
2018-06-04T02:57:39.380Z,87.55
2018-06-04T02:58:39.385Z,87.74
2018-06-04T02:59:39.344Z,87.88
2018-06-04T03:00:39.336Z,87.98
2018-06-04T03:01:39.340Z,87.50
2018-06-04T03:02:39.314Z,87.31
2018-06-04T03:03:39.330Z,87.31
2018-06-04T03:04:39.321Z,88.08
2018-06-04T03:05:39.314Z,87.60
2018-06-04T03:06:39.288Z,87.70
2018-06-04T03:07:39.448Z,87.70
2018-06-04T03:08:39.949Z,87.50
2018-06-04T03:09:39.267Z,87.70
2018-06-04T03:10:39.266Z,88.17
2018-06-04T03:11:39.250Z,87.50
2018-06-04T03:12:39.243Z,87.98
2018-06-04T03:13:39.251Z,87.70
2018-06-04T03:14:39.258Z,87.60
2018-06-04T03:15:39.210Z,87.60
2018-06-04T03:16:39.205Z,87.79
2018-06-04T03:17:39.196Z,88.08
2018-06-04T03:18:39.194Z,87.50
2018-06-04T03:19:39.164Z,87.12
2018-06-04T03:20:39.171Z,87.41
2018-06-04T03:21:39.163Z,87.31
2018-06-04T03:22:39.150Z,88.03
2018-06-04T03:23:39.167Z,87.88
2018-06-04T03:24:39.134Z,88.42
2018-06-04T03:25:39.117Z,88.27
2018-06-04T03:26:39.157Z,88.46
2018-06-04T03:27:39.104Z,88.65
2018-06-04T03:28:39.130Z,88.75
2018-06-04T03:29:39.091Z,88.46
2018-06-04T03:30:39.089Z,88.65
2018-06-04T03:31:39.104Z,89.04
2018-06-04T03:32:39.067Z,89.04
2018-06-04T03:33:39.084Z,88.84
2018-06-04T03:34:39.083Z,89.04
2018-06-04T03:35:39.035Z,88.65
2018-06-04T03:36:39.039Z,88.84
2018-06-04T03:37:39.016Z,88.79
2018-06-04T03:38:39.042Z,88.70
2018-06-04T03:39:39.005Z,89.08
2018-06-04T03:40:38.998Z,88.70
2018-06-04T03:41:39.022Z,88.51
2018-06-04T03:42:38.979Z,87.64
2018-06-04T03:43:38.961Z,87.84
2018-06-04T03:44:38.951Z,86.97
2018-06-04T03:45:38.958Z,87.31
2018-06-04T03:46:38.972Z,87.02
2018-06-04T03:47:38.940Z,86.54
2018-06-04T03:48:38.937Z,87.02
2018-06-04T03:49:38.916Z,86.83
2018-06-04T03:50:38.905Z,87.12
2018-06-04T03:51:38.886Z,86.74
2018-06-04T03:52:38.956Z,86.93
2018-06-04T03:53:38.869Z,86.74
2018-06-04T03:54:38.864Z,87.12
2018-06-04T03:55:38.854Z,86.83
2018-06-04T03:56:38.841Z,87.02
2018-06-04T03:57:38.946Z,87.31
2018-06-04T03:58:38.840Z,87.84
2018-06-04T03:59:38.828Z,87.27
2018-06-04T04:00:38.812Z,88.42
2018-06-04T04:01:38.802Z,88.23
2018-06-04T04:02:38.797Z,87.94
2018-06-04T04:03:38.824Z,89.09
2018-06-04T04:04:38.775Z,88.61
2018-06-04T04:05:38.764Z,89.32
2018-06-04T04:06:38.757Z,88.94
2018-06-04T04:07:38.757Z,89.04
2018-06-04T04:08:38.906Z,89.04
2018-06-04T04:09:38.733Z,89.04
2018-06-04T04:10:38.719Z,89.13
2018-06-04T04:11:38.715Z,88.65
2018-06-04T04:12:38.694Z,88.84
2018-06-04T04:13:38.695Z,88.65
2018-06-04T04:14:38.727Z,88.27
2018-06-04T04:15:38.680Z,88.46
2018-06-04T04:16:38.678Z,88.27
2018-06-04T04:17:38.661Z,88.17
2018-06-04T04:18:38.786Z,87.98
2018-06-04T04:19:38.637Z,88.17
2018-06-04T04:20:38.639Z,88.46
2018-06-04T04:21:38.641Z,88.17
2018-06-04T04:22:38.611Z,88.08
2018-06-04T04:23:38.606Z,88.27
2018-06-04T04:24:38.628Z,87.98
2018-06-04T04:25:38.583Z,87.88
2018-06-04T04:26:38.585Z,87.50
2018-06-04T04:27:38.571Z,87.70
2018-06-04T04:28:38.555Z,87.70
2018-06-04T04:29:38.625Z,88.08
2018-06-04T04:30:38.544Z,88.17
2018-06-04T04:31:38.535Z,88.27
2018-06-04T04:32:38.526Z,88.42
2018-06-04T04:33:38.524Z,88.99
2018-06-04T04:34:38.503Z,89.09
2018-06-04T04:35:38.495Z,89.28
2018-06-04T04:36:38.475Z,89.57
2018-06-04T04:37:38.473Z,89.37
2018-06-04T04:38:38.463Z,89.32
2018-06-04T04:39:38.461Z,89.61
2018-06-04T04:40:38.476Z,89.90
2018-06-04T04:41:38.448Z,90.38
2018-06-04T04:42:38.429Z,90.57
2018-06-04T04:43:38.426Z,89.80
2018-06-04T04:44:38.415Z,89.90
2018-06-04T04:45:38.502Z,90.19
2018-06-04T04:46:38.409Z,90.00
2018-06-04T04:47:38.375Z,90.04
2018-06-04T04:48:38.372Z,89.75
2018-06-04T04:49:38.365Z,89.85
2018-06-04T04:50:38.396Z,89.47
2018-06-04T04:51:38.498Z,89.47
2018-06-04T04:52:38.346Z,89.37
2018-06-04T04:53:38.340Z,89.75
2018-06-04T04:54:38.328Z,89.65
2018-06-04T04:55:38.326Z,89.56
2018-06-04T04:56:38.313Z,89.08
2018-06-04T04:57:38.306Z,88.60
2018-06-04T04:58:38.298Z,88.98
2018-06-04T04:59:38.294Z,88.89
2018-06-04T05:00:38.295Z,89.08
2018-06-04T05:01:38.270Z,88.98
2018-06-04T05:02:38.279Z,88.89
2018-06-04T05:03:38.244Z,89.08
2018-06-04T05:04:38.240Z,89.37
2018-06-04T05:05:38.264Z,89.37
2018-06-04T05:06:38.233Z,89.47
2018-06-04T05:07:38.243Z,89.27
2018-06-04T05:08:38.263Z,89.18
2018-06-04T05:09:38.189Z,90.04
2018-06-04T05:10:38.205Z,90.23
2018-06-04T05:11:38.188Z,90.61
2018-06-04T05:12:38.178Z,90.42
2018-06-04T05:13:38.193Z,91.09
2018-06-04T05:14:38.153Z,91.19
2018-06-04T05:15:38.294Z,91.09
2018-06-04T05:16:38.135Z,91.48
2018-06-04T05:17:38.138Z,91.48
2018-06-04T05:18:38.119Z,91.48
2018-06-04T05:19:38.105Z,91.57
2018-06-04T05:20:38.101Z,91.38
2018-06-04T05:21:38.154Z,91.09
2018-06-04T05:22:38.088Z,91.05
2018-06-04T05:23:38.063Z,91.91
2018-06-04T05:24:38.065Z,91.42
2018-06-04T05:25:38.050Z,91.33
2018-06-04T05:26:38.083Z,92.19
2018-06-04T05:27:38.043Z,91.14
2018-06-04T05:28:38.043Z,91.72
2018-06-04T05:29:38.025Z,91.81
2018-06-04T05:30:38.017Z,92.29
2018-06-04T05:31:38.005Z,92.10
2018-06-04T05:32:38.023Z,92.39
2018-06-04T05:33:38.038Z,93.15
2018-06-04T05:34:37.988Z,93.15
2018-06-04T05:35:37.976Z,93.82
2018-06-04T05:36:37.977Z,93.92
2018-06-04T05:37:37.956Z,94.21
2018-06-04T05:38:37.949Z,93.82
2018-06-04T05:39:37.970Z,93.92
2018-06-04T05:40:37.926Z,94.07
2018-06-04T05:41:37.925Z,93.97
2018-06-04T05:42:37.912Z,94.64
2018-06-04T05:43:37.915Z,94.26
2018-06-04T05:44:37.905Z,95.03
2018-06-04T05:45:37.902Z,95.07
2018-06-04T05:46:37.884Z,95.55
2018-06-04T05:47:37.880Z,96.51
2018-06-04T05:48:37.865Z,96.22
2018-06-04T05:49:37.997Z,96.89
2018-06-04T05:50:37.855Z,96.80
2018-06-04T05:51:37.843Z,96.56
2018-06-04T05:52:37.836Z,96.37
2018-06-04T05:53:37.822Z,96.32
2018-06-04T05:54:37.825Z,97.04
2018-06-04T05:55:37.841Z,96.66
2018-06-04T05:56:37.808Z,96.56
2018-06-04T05:57:37.806Z,96.08
2018-06-04T05:58:37.800Z,96.85
2018-06-04T05:59:37.793Z,96.85
2018-06-04T06:00:37.806Z,96.66
2018-06-04T06:01:37.772Z,96.94
2018-06-04T06:02:37.759Z,96.94
2018-06-04T06:03:37.754Z,96.47
2018-06-04T06:04:37.750Z,96.56
2018-06-04T06:05:38.040Z,96.27
2018-06-04T06:06:37.736Z,96.18
2018-06-04T06:07:37.718Z,96.18
2018-06-04T06:08:37.705Z,96.47
2018-06-04T06:09:37.693Z,96.66
2018-06-04T06:10:37.695Z,96.85
2018-06-04T06:11:37.718Z,96.56
2018-06-04T06:12:37.688Z,96.85
2018-06-04T06:13:37.674Z,97.52
2018-06-04T06:14:37.659Z,96.85
2018-06-04T06:15:37.653Z,96.80
2018-06-04T06:16:37.710Z,96.85
2018-06-04T06:17:37.643Z,96.80
2018-06-04T06:18:37.629Z,96.22
2018-06-04T06:19:37.612Z,96.32
2018-06-04T06:20:38.507Z,96.13
2018-06-04T06:21:37.604Z,96.61
2018-06-04T06:22:37.613Z,96.61
2018-06-04T06:23:37.591Z,96.61
2018-06-04T06:24:37.581Z,95.75
2018-06-04T06:25:37.580Z,96.13
2018-06-04T06:26:37.638Z,95.65
2018-06-04T06:27:37.569Z,95.55
2018-06-04T06:28:37.549Z,96.51
2018-06-04T06:29:37.552Z,96.32
2018-06-04T06:30:37.544Z,96.32
2018-06-04T06:31:37.543Z,96.22
2018-06-04T06:32:37.519Z,96.47
2018-06-04T06:33:37.527Z,96.37
2018-06-04T06:34:37.507Z,96.66
2018-06-04T06:35:37.502Z,95.60
2018-06-04T06:36:37.495Z,95.70
2018-06-04T06:37:37.549Z,95.60
2018-06-04T06:38:37.474Z,95.98
2018-06-04T06:39:37.478Z,95.21
2018-06-04T06:40:37.472Z,95.03
2018-06-04T06:41:37.458Z,95.31
2018-06-04T06:42:37.476Z,94.54
2018-06-04T06:43:37.446Z,94.64
2018-06-04T06:44:37.443Z,94.59
2018-06-04T06:45:37.438Z,94.59
2018-06-04T06:46:37.424Z,94.59
2018-06-04T06:47:37.548Z,94.11
2018-06-04T06:48:37.413Z,94.30
2018-06-04T06:49:37.401Z,94.49
2018-06-04T06:50:37.395Z,94.11
2018-06-04T06:51:37.380Z,93.34
2018-06-04T06:52:37.394Z,93.53
2018-06-04T06:53:37.399Z,93.63
2018-06-04T06:54:37.552Z,93.73
2018-06-04T06:55:37.361Z,93.05
2018-06-04T06:56:37.361Z,92.67
2018-06-04T06:57:37.345Z,92.67
2018-06-04T06:58:37.340Z,92.38
2018-06-04T06:59:37.324Z,92.57
2018-06-04T07:00:37.457Z,92.67
2018-06-04T07:01:37.315Z,91.90
2018-06-04T07:02:37.309Z,92.43
2018-06-04T07:03:37.299Z,92.52
2018-06-04T07:04:37.286Z,92.43
2018-06-04T07:05:37.289Z,92.52
2018-06-04T07:06:37.292Z,91.85
2018-06-04T07:07:37.346Z,91.08
2018-06-04T07:08:37.267Z,91.27
2018-06-04T07:09:37.263Z,91.08
2018-06-04T07:10:37.288Z,91.36
2018-06-04T07:11:37.249Z,90.89
2018-06-04T07:12:37.250Z,91.08
2018-06-04T07:13:37.224Z,91.08
2018-06-04T07:14:37.252Z,90.50
2018-06-04T07:15:37.259Z,90.59
2018-06-04T07:16:37.236Z,89.54
2018-06-04T07:17:37.207Z,88.87
2018-06-04T07:18:37.202Z,89.88
2018-06-04T07:19:37.182Z,89.11
2018-06-04T07:20:37.192Z,89.40
2018-06-04T07:21:37.545Z,89.98
2018-06-04T07:22:37.197Z,89.88
2018-06-04T07:23:37.203Z,90.36
2018-06-04T07:24:37.167Z,90.12
2018-06-04T07:25:37.155Z,90.98
2018-06-04T07:26:37.146Z,90.31
2018-06-04T07:27:37.130Z,90.31
2018-06-04T07:28:37.595Z,90.50
2018-06-04T07:29:37.120Z,90.59
2018-06-04T07:30:37.117Z,90.50
2018-06-04T07:31:37.104Z,90.59
2018-06-04T07:32:37.104Z,90.31
2018-06-04T07:33:37.105Z,90.50
2018-06-04T07:34:37.094Z,90.31
2018-06-04T07:35:37.089Z,90.69
2018-06-04T07:36:37.084Z,89.92
2018-06-04T07:37:37.079Z,90.31
2018-06-04T07:38:37.097Z,89.92
2018-06-04T07:39:37.055Z,89.64
2018-06-04T07:40:37.064Z,89.87
2018-06-04T07:41:37.050Z,89.83
2018-06-04T07:42:37.083Z,89.83
2018-06-04T07:43:37.033Z,89.68
2018-06-04T07:44:37.022Z,89.10
2018-06-04T07:45:37.068Z,88.96
2018-06-04T07:46:37.007Z,88.77
2018-06-04T07:47:37.015Z,88.77
2018-06-04T07:48:36.996Z,88.00
2018-06-04T07:49:36.998Z,88.19
2018-06-04T07:50:36.978Z,88.19
2018-06-04T07:51:37.023Z,88.57
2018-06-04T07:52:36.975Z,87.81
2018-06-04T07:53:36.974Z,88.19
2018-06-04T07:54:36.977Z,88.48
2018-06-04T07:55:37.008Z,88.87
2018-06-04T07:56:37.085Z,88.57
2018-06-04T07:57:36.952Z,88.53
2018-06-04T07:58:36.940Z,87.71
2018-06-04T07:59:36.938Z,88.00
2018-06-04T08:00:36.922Z,87.90
2018-06-04T08:01:36.914Z,88.10
2018-06-04T08:02:36.963Z,88.10
2018-06-04T08:03:36.903Z,88.10
2018-06-04T08:04:36.902Z,87.90
2018-06-04T08:05:36.893Z,88.57
2018-06-04T08:06:36.909Z,88.48
2018-06-04T08:07:36.887Z,88.48
2018-06-04T08:08:36.896Z,88.19
2018-06-04T08:09:36.869Z,88.67
2018-06-04T08:10:36.861Z,88.77
2018-06-04T08:11:36.853Z,88.10
2018-06-04T08:12:36.890Z,87.81
2018-06-04T08:13:36.885Z,88.19
2018-06-04T08:14:36.847Z,88.39
2018-06-04T08:15:36.818Z,88.29
2018-06-04T08:16:36.832Z,88.39
2018-06-04T08:17:36.823Z,88.19
2018-06-04T08:18:36.842Z,88.48
2018-06-04T08:19:36.842Z,89.06
2018-06-04T08:20:36.793Z,88.00
2018-06-04T08:21:36.803Z,88.39
2018-06-04T08:22:36.788Z,89.25
2018-06-04T08:23:36.785Z,88.77
2018-06-04T08:24:36.809Z,89.15
2018-06-04T08:25:36.766Z,88.96
2018-06-04T08:26:36.778Z,89.25
2018-06-04T08:27:36.766Z,88.19
2018-06-04T08:28:36.754Z,87.81
2018-06-04T08:29:36.751Z,87.62
2018-06-04T08:30:36.746Z,88.57
2018-06-04T08:31:36.775Z,88.77
2018-06-04T08:32:36.734Z,87.90
2018-06-04T08:33:37.107Z,88.39
2018-06-04T08:34:36.728Z,88.87
2018-06-04T08:35:36.727Z,88.39
2018-06-04T08:36:36.720Z,87.81
2018-06-04T08:37:36.694Z,88.00
2018-06-04T08:38:36.696Z,88.48
2018-06-04T08:39:36.717Z,88.48
2018-06-04T08:40:36.669Z,88.57
2018-06-04T08:41:36.678Z,88.87
2018-06-04T08:42:36.667Z,88.57
2018-06-04T08:43:36.732Z,88.57
2018-06-04T08:44:36.651Z,88.39
2018-06-04T08:45:37.576Z,88.29
2018-06-04T08:46:36.639Z,88.57
2018-06-04T08:47:36.867Z,88.62
2018-06-04T08:48:36.626Z,88.19
2018-06-04T08:49:36.663Z,87.62
2018-06-04T08:50:36.633Z,87.90
2018-06-04T08:51:36.624Z,88.00
2018-06-04T08:52:36.607Z,87.81
2018-06-04T08:53:36.618Z,87.90
2018-06-04T08:54:37.006Z,87.52
2018-06-04T08:55:36.599Z,87.23
2018-06-04T08:56:36.581Z,87.86
2018-06-04T08:57:36.586Z,88.92
2018-06-04T08:58:36.576Z,88.87
2018-06-04T08:59:36.569Z,89.06
2018-06-04T09:00:36.576Z,88.48
2018-06-04T09:01:36.563Z,88.39
2018-06-04T09:02:36.551Z,88.96
2018-06-04T09:03:36.622Z,88.77
2018-06-04T09:04:36.547Z,88.96
2018-06-04T09:05:36.535Z,88.96
2018-06-04T09:06:36.521Z,89.15
2018-06-04T09:07:36.532Z,89.10
2018-06-04T09:08:36.516Z,89.20
2018-06-04T09:09:36.570Z,88.91
2018-06-04T09:10:36.510Z,88.33
2018-06-04T09:11:36.506Z,87.08
2018-06-04T09:12:36.504Z,87.56
2018-06-04T09:13:36.498Z,86.79
2018-06-04T09:14:36.479Z,87.08
2018-06-04T09:15:36.546Z,86.60
2018-06-04T09:16:36.482Z,86.41
2018-06-04T09:17:36.471Z,87.27
2018-06-04T09:18:36.470Z,86.99
2018-06-04T09:19:36.618Z,87.08
2018-06-04T09:20:36.449Z,87.46
2018-06-04T09:21:36.489Z,87.32
2018-06-04T09:22:36.461Z,86.93
2018-06-04T09:23:36.461Z,87.90
2018-06-04T09:24:36.433Z,87.60
2018-06-04T09:25:36.447Z,87.36
2018-06-04T09:26:36.441Z,86.88
2018-06-04T09:27:36.435Z,86.54
2018-06-04T09:28:36.430Z,85.86
2018-06-04T09:29:36.453Z,85.86
2018-06-04T09:30:36.453Z,85.28
2018-06-04T09:31:36.419Z,84.80
2018-06-04T09:32:36.413Z,83.59
2018-06-04T09:33:36.504Z,84.12
2018-06-04T09:34:36.419Z,83.78
2018-06-04T09:35:36.406Z,82.72
2018-06-04T09:36:36.412Z,81.85
2018-06-04T09:37:36.406Z,82.05
2018-06-04T09:38:36.403Z,81.14
2018-06-04T09:39:36.423Z,81.81
2018-06-04T09:40:36.402Z,82.87
2018-06-04T09:41:36.401Z,82.68
2018-06-04T09:42:36.628Z,81.95
2018-06-04T09:43:36.417Z,82.92
2018-06-04T09:44:36.399Z,82.82
2018-06-04T09:45:36.396Z,82.82
2018-06-04T09:46:36.386Z,82.86
2018-06-04T09:47:36.452Z,81.51
2018-06-04T09:48:36.416Z,80.93
2018-06-04T09:49:36.417Z,80.54
2018-06-04T09:50:36.391Z,81.22
2018-06-04T09:51:36.379Z,79.54
2018-06-04T09:52:36.377Z,79.74
2018-06-04T09:53:36.391Z,79.44
2018-06-04T09:54:36.444Z,79.54
2018-06-04T09:55:37.101Z,80.46
2018-06-04T09:56:36.386Z,81.14
2018-06-04T09:57:36.374Z,81.81
2018-06-04T09:58:36.382Z,80.76
2018-06-04T09:59:36.380Z,81.33
2018-06-04T10:00:36.379Z,81.95
2018-06-04T10:01:36.389Z,81.37
2018-06-04T10:02:36.384Z,80.99
2018-06-04T10:03:36.383Z,80.60
2018-06-04T10:04:36.409Z,79.93
2018-06-04T10:05:36.392Z,79.41
2018-06-04T10:06:36.451Z,79.60
2018-06-04T10:07:36.374Z,80.94
2018-06-04T10:08:36.383Z,81.14
2018-06-04T10:09:36.380Z,81.48
2018-06-04T10:10:36.375Z,81.72
2018-06-04T10:11:36.367Z,81.20
2018-06-04T10:12:36.385Z,81.52
2018-06-04T10:13:36.377Z,81.62
2018-06-04T10:14:36.367Z,81.81
2018-06-04T10:15:36.393Z,81.81
2018-06-04T10:16:36.363Z,81.72
2018-06-04T10:17:36.373Z,81.62
2018-06-04T10:18:36.367Z,81.58
2018-06-04T10:19:36.359Z,82.16
2018-06-04T10:20:36.358Z,82.16
2018-06-04T10:21:36.353Z,82.12
2018-06-04T10:22:36.445Z,82.85
2018-06-04T10:23:36.350Z,83.52
2018-06-04T10:24:36.364Z,83.23
2018-06-04T10:25:36.336Z,84.44
2018-06-04T10:26:36.337Z,84.92
2018-06-04T10:27:36.390Z,84.83
2018-06-04T10:28:36.332Z,85.02
2018-06-04T10:29:36.329Z,84.83
2018-06-04T10:30:36.317Z,84.06
2018-06-04T10:31:36.316Z,85.21
2018-06-04T10:32:36.308Z,85.06
2018-06-04T10:33:36.350Z,85.06
2018-06-04T10:34:36.309Z,85.25
2018-06-04T10:35:36.303Z,84.97
2018-06-04T10:36:36.298Z,85.25
2018-06-04T10:37:36.284Z,84.19
2018-06-04T10:38:36.315Z,84.29
2018-06-04T10:39:36.276Z,84.39
2018-06-04T10:40:36.356Z,83.91
2018-06-04T10:41:36.271Z,84.67
2018-06-04T10:42:36.323Z,83.23
2018-06-04T10:43:36.266Z,83.28
2018-06-04T10:44:36.250Z,83.85
2018-06-04T10:45:36.259Z,84.23
2018-06-04T10:46:36.266Z,83.85
2018-06-04T10:47:36.251Z,83.66
2018-06-04T10:48:36.273Z,84.05
2018-06-04T10:49:36.234Z,84.18
2018-06-04T10:50:36.259Z,83.99
2018-06-04T10:51:36.230Z,83.80
2018-06-04T10:52:36.218Z,83.03
2018-06-04T10:53:36.220Z,82.93
2018-06-04T10:54:36.218Z,82.64
2018-06-04T10:55:36.214Z,81.68
2018-06-04T10:56:36.205Z,80.56
2018-06-04T10:57:36.314Z,80.56
2018-06-04T10:58:36.193Z,79.21
2018-06-04T10:59:36.190Z,79.60
2018-06-04T11:00:36.192Z,79.16
2018-06-04T11:01:36.221Z,78.48
2018-06-04T11:02:36.185Z,79.44
2018-06-04T11:03:36.187Z,78.03
2018-06-04T11:04:36.198Z,77.46
2018-06-04T11:05:36.180Z,77.90
2018-06-04T11:06:36.200Z,78.96
2018-06-04T11:07:36.183Z,79.06
2018-06-04T11:08:36.182Z,78.38
2018-06-04T11:09:36.212Z,77.90
2018-06-04T11:10:36.227Z,79.16
2018-06-04T11:11:36.177Z,78.58
2018-06-04T11:12:36.179Z,78.09
2018-06-04T11:13:36.166Z,79.16
2018-06-04T11:14:36.180Z,79.39
2018-06-04T11:15:36.181Z,79.49
2018-06-04T11:16:36.308Z,77.98
2018-06-04T11:17:36.176Z,76.92
2018-06-04T11:18:36.164Z,76.15
2018-06-04T11:19:36.162Z,77.11
2018-06-04T11:20:36.193Z,75.60
2018-06-04T11:21:36.171Z,74.87
2018-06-04T11:22:36.165Z,74.87
2018-06-04T11:23:36.165Z,73.71
2018-06-04T11:24:36.159Z,73.84
2018-06-04T11:25:36.217Z,74.27
2018-06-04T11:26:36.199Z,72.33
2018-06-04T11:27:36.168Z,69.46
2018-06-04T11:28:36.163Z,67.05
2018-06-04T11:29:36.162Z,67.72
2018-06-04T11:30:36.175Z,66.75
2018-06-04T11:31:36.173Z,66.47
2018-06-04T11:32:36.187Z,67.05
2018-06-04T11:33:36.312Z,67.91
2018-06-04T11:34:36.180Z,66.47
2018-06-04T11:35:36.185Z,66.95
2018-06-04T11:36:36.183Z,66.95
2018-06-04T11:37:36.260Z,67.91
2018-06-04T11:38:36.203Z,68.49
2018-06-04T11:39:36.203Z,70.27
2018-06-04T11:40:36.207Z,70.89
2018-06-04T11:41:36.211Z,66.66
2018-06-04T11:42:36.198Z,65.79
2018-06-04T11:43:36.215Z,65.75
2018-06-04T11:44:36.240Z,65.75
2018-06-04T11:45:36.376Z,66.60
2018-06-04T11:46:36.217Z,65.50
2018-06-04T11:47:36.226Z,67.05
2018-06-04T11:48:36.221Z,67.53
2018-06-04T11:49:36.238Z,66.85
2018-06-04T11:50:36.235Z,67.24
2018-06-04T11:51:36.240Z,66.75
2018-06-04T11:52:36.235Z,67.98
2018-06-04T11:53:36.273Z,68.85
2018-06-04T11:54:36.237Z,68.08
2018-06-04T11:55:36.241Z,67.98
2018-06-04T11:56:36.289Z,68.37
2018-06-04T11:57:36.352Z,69.24
2018-06-04T11:58:36.247Z,68.85
2018-06-04T11:59:36.242Z,68.82
2018-06-04T12:00:36.258Z,68.62
2018-06-04T12:01:36.245Z,68.04
2018-06-04T12:02:36.234Z,68.72
2018-06-04T12:03:36.238Z,68.59
2018-06-04T12:04:36.250Z,68.88
2018-06-04T12:05:36.230Z,69.65
2018-06-04T12:06:36.242Z,70.48
2018-06-04T12:07:36.229Z,70.64
2018-06-04T12:08:36.262Z,71.61
2018-06-04T12:09:36.244Z,70.36
2018-06-04T12:10:36.234Z,71.03
2018-06-04T12:11:36.604Z,72.19
2018-06-04T12:12:36.217Z,71.32
2018-06-04T12:13:36.221Z,72.09
2018-06-04T12:14:36.219Z,72.28
2018-06-04T12:15:36.207Z,72.58
2018-06-04T12:16:36.220Z,72.44
2018-06-04T12:17:36.247Z,72.67
2018-06-04T12:18:36.662Z,72.67
2018-06-04T12:19:36.219Z,72.96
2018-06-04T12:20:36.203Z,72.00
2018-06-04T12:21:36.210Z,71.00
2018-06-04T12:22:36.203Z,71.61
2018-06-04T12:23:36.201Z,71.58
2018-06-04T12:24:36.197Z,72.54
2018-06-04T12:25:36.185Z,72.44
2018-06-04T12:26:36.180Z,71.96
2018-06-04T12:27:36.186Z,71.38
2018-06-04T12:28:36.180Z,71.38
2018-06-04T12:29:36.261Z,72.83
2018-06-04T12:30:36.176Z,72.83
2018-06-04T12:31:36.166Z,72.54
2018-06-04T12:32:36.171Z,72.63
2018-06-04T12:33:36.164Z,72.06
2018-06-04T12:34:36.164Z,71.86
2018-06-04T12:35:36.359Z,72.25
2018-06-04T12:36:36.157Z,72.99
2018-06-04T12:37:36.160Z,72.21
2018-06-04T12:38:36.158Z,72.02
2018-06-04T12:39:36.145Z,72.69
2018-06-04T12:40:36.145Z,74.33
2018-06-04T12:41:36.149Z,74.05
2018-06-04T12:42:36.173Z,73.57
2018-06-04T12:43:36.136Z,73.57
2018-06-04T12:44:36.132Z,72.89
2018-06-04T12:45:36.129Z,73.79
2018-06-04T12:46:36.138Z,73.18
2018-06-04T12:47:36.115Z,73.31
2018-06-04T12:48:36.106Z,73.11
2018-06-04T12:49:36.108Z,72.83
2018-06-04T12:50:36.120Z,73.69
2018-06-04T12:51:36.135Z,73.27
2018-06-04T12:52:36.123Z,74.47